sensor_id;sensor_type;location;lat;lon;timestamp;pressure;altitude;pressure_sealevel;temperature;humidity
28626;BME280;18905;42.668;23.364;2023-03-21T00:01:53;94817.81;;;11.70;89.45
28626;BME280;18905;42.668;23.364;2023-03-21T00:04:20;94885.59;;;12.15;89.07
28626;BME280;18905;42.668;23.364;2023-03-21T00:06:46;94874.63;;;11.91;90.47
28626;BME280;18905;42.668;23.364;2023-03-21T00:09:11;94845.75;;;11.54;93.44
28626;BME280;18905;42.668;23.364;2023-03-21T00:11:37;94887.72;;;11.89;93.78
28626;BME280;18905;42.668;23.364;2023-03-21T00:14:02;94879.31;;;12.02;92.39
28626;BME280;18905;42.668;23.364;2023-03-21T00:16:28;94920.25;;;12.54;89.65
28626;BME280;18905;42.668;23.364;2023-03-21T00:18:56;94917.44;;;12.51;89.19
28626;BME280;18905;42.668;23.364;2023-03-21T00:21:23;94782.00;;;11.73;88.48
28626;BME280;18905;42.668;23.364;2023-03-21T00:23:53;94857.91;;;12.30;87.98
28626;BME280;18905;42.668;23.364;2023-03-21T00:26:19;94890.47;;;12.54;86.85
28626;BME280;18905;42.668;23.364;2023-03-21T00:28:47;94908.59;;;12.74;85.29
28626;BME280;18905;42.668;23.364;2023-03-21T00:31:12;94879.63;;;12.54;83.97
28626;BME280;18905;42.668;23.364;2023-03-21T00:33:38;94833.03;;;12.16;83.00
28626;BME280;18905;42.668;23.364;2023-03-21T00:36:04;94856.75;;;12.31;83.77
28626;BME280;18905;42.668;23.364;2023-03-21T00:38:30;94919.38;;;12.62;85.15
28626;BME280;18905;42.668;23.364;2023-03-21T00:40:56;94883.44;;;12.21;87.23
28626;BME280;18905;42.668;23.364;2023-03-21T00:43:21;94851.72;;;11.88;88.73
28626;BME280;18905;42.668;23.364;2023-03-21T00:45:49;94897.66;;;12.18;89.67
28626;BME280;18905;42.668;23.364;2023-03-21T00:48:15;94909.94;;;12.15;89.31
28626;BME280;18905;42.668;23.364;2023-03-21T00:50:43;94918.25;;;12.31;88.83
28626;BME280;18905;42.668;23.364;2023-03-21T00:53:11;94857.88;;;11.98;87.95
28626;BME280;18905;42.668;23.364;2023-03-21T00:55:37;94920.22;;;12.42;87.95
28626;BME280;18905;42.668;23.364;2023-03-21T00:58:03;94865.84;;;12.15;88.39
28626;BME280;18905;42.668;23.364;2023-03-21T01:00:30;94887.88;;;12.25;87.94
28626;BME280;18905;42.668;23.364;2023-03-21T01:02:57;94919.69;;;12.49;87.08
28626;BME280;18905;42.668;23.364;2023-03-21T01:05:32;94853.13;;;12.15;86.19
28626;BME280;18905;42.668;23.364;2023-03-21T01:08:18;94849.38;;;12.08;87.10
28626;BME280;18905;42.668;23.364;2023-03-21T01:10:46;94896.50;;;12.39;87.73
28626;BME280;18905;42.668;23.364;2023-03-21T01:13:14;94809.78;;;11.82;87.96
28626;BME280;18905;42.668;23.364;2023-03-21T01:15:45;94841.91;;;12.05;87.39
28626;BME280;18905;42.668;23.364;2023-03-21T01:18:11;94816.00;;;11.83;87.50
28626;BME280;18905;42.668;23.364;2023-03-21T01:20:39;94869.91;;;12.21;87.42
28626;BME280;18905;42.668;23.364;2023-03-21T01:23:05;94903.63;;;12.44;87.91
28626;BME280;18905;42.668;23.364;2023-03-21T01:25:31;94874.78;;;12.27;87.61
28626;BME280;18905;42.668;23.364;2023-03-21T01:27:57;94902.38;;;12.41;88.49
28626;BME280;18905;42.668;23.364;2023-03-21T01:30:22;94879.97;;;12.20;89.09
28626;BME280;18905;42.668;23.364;2023-03-21T01:32:48;94904.84;;;12.34;89.80
28626;BME280;18905;42.668;23.364;2023-03-21T01:35:14;94764.00;;;11.16;92.28
28626;BME280;18905;42.668;23.364;2023-03-21T01:37:39;94827.03;;;11.49;93.07
28626;BME280;18905;42.668;23.364;2023-03-21T01:40:06;94877.53;;;11.65;95.33
28626;BME280;18905;42.668;23.364;2023-03-21T01:42:37;94902.16;;;11.73;97.17
28626;BME280;18905;42.668;23.364;2023-03-21T01:45:57;94897.66;;;11.47;98.95
28626;BME280;18905;42.668;23.364;2023-03-21T01:47:50;94768.25;;;10.67;99.03
28626;BME280;18905;42.668;23.364;2023-03-21T01:50:17;94824.59;;;11.06;98.99
28626;BME280;18905;42.668;23.364;2023-03-21T01:52:46;94749.56;;;10.62;96.93
28626;BME280;18905;42.668;23.364;2023-03-21T01:55:15;94827.88;;;11.20;96.62
28626;BME280;18905;42.668;23.364;2023-03-21T01:57:45;94842.16;;;11.21;98.07
28626;BME280;18905;42.668;23.364;2023-03-21T02:00:13;94895.44;;;10.83;100.00
28626;BME280;18905;42.668;23.364;2023-03-21T02:02:42;94811.97;;;9.72;100.00
28626;BME280;18905;42.668;23.364;2023-03-21T02:07:51;94902.72;;;10.28;100.00
28626;BME280;18905;42.668;23.364;2023-03-21T02:10:17;94868.28;;;10.08;100.00
28626;BME280;18905;42.668;23.364;2023-03-21T02:12:43;94892.50;;;10.50;100.00
28626;BME280;18905;42.668;23.364;2023-03-21T02:15:10;94835.41;;;10.31;100.00
28626;BME280;18905;42.668;23.364;2023-03-21T02:17:55;94889.22;;;10.91;100.00
28626;BME280;18905;42.668;23.364;2023-03-21T02:29:26;94889.78;;;11.05;100.00
28626;BME280;18905;42.668;23.364;2023-03-21T02:32:03;94889.19;;;10.99;100.00
28626;BME280;18905;42.668;23.364;2023-03-21T02:34:59;94892.44;;;11.13;100.00
28626;BME280;18905;42.668;23.364;2023-03-21T02:37:36;94890.19;;;11.24;100.00
28626;BME280;18905;42.668;23.364;2023-03-21T02:40:09;94888.75;;;11.18;100.00
28626;BME280;18905;42.668;23.364;2023-03-21T02:45:20;94801.47;;;10.68;100.00
28626;BME280;18905;42.668;23.364;2023-03-21T02:47:58;94878.13;;;11.13;100.00
28626;BME280;18905;42.668;23.364;2023-03-21T02:50:32;94889.06;;;11.25;100.00
28626;BME280;18905;42.668;23.364;2023-03-21T02:52:59;94861.78;;;11.09;100.00
28626;BME280;18905;42.668;23.364;2023-03-21T02:55:29;94878.06;;;11.01;100.00
28626;BME280;18905;42.668;23.364;2023-03-21T02:57:57;94843.06;;;10.67;100.00
28626;BME280;18905;42.668;23.364;2023-03-21T03:00:29;94818.41;;;10.31;100.00
28626;BME280;18905;42.668;23.364;2023-03-21T03:02:55;94786.59;;;10.07;100.00
28626;BME280;18905;42.668;23.364;2023-03-21T03:05:24;94766.00;;;9.86;100.00
28626;BME280;18905;42.668;23.364;2023-03-21T03:09:23;94790.41;;;10.06;100.00
28626;BME280;18905;42.668;23.364;2023-03-21T03:11:54;94888.00;;;10.71;100.00
28626;BME280;18905;42.668;23.364;2023-03-21T03:17:54;94888.16;;;10.75;100.00
28626;BME280;18905;42.668;23.364;2023-03-21T03:20:40;94890.72;;;10.71;100.00
28626;BME280;18905;42.668;23.364;2023-03-21T03:23:18;94890.41;;;10.64;100.00
28626;BME280;18905;42.668;23.364;2023-03-21T03:25:52;94873.75;;;10.54;100.00
28626;BME280;18905;42.668;23.364;2023-03-21T03:28:25;94855.03;;;10.49;100.00
28626;BME280;18905;42.668;23.364;2023-03-21T03:30:52;94826.31;;;10.44;100.00
28626;BME280;18905;42.668;23.364;2023-03-21T03:33:19;94896.66;;;10.56;100.00
28626;BME280;18905;42.668;23.364;2023-03-21T03:35:48;94838.75;;;10.20;100.00
28626;BME280;18905;42.668;23.364;2023-03-21T03:38:16;94783.09;;;9.81;100.00
28626;BME280;18905;42.668;23.364;2023-03-21T03:40:50;94794.03;;;9.93;100.00
28626;BME280;18905;42.668;23.364;2023-03-21T03:43:27;94730.53;;;9.50;100.00
28626;BME280;18905;42.668;23.364;2023-03-21T03:46:05;94814.03;;;9.92;100.00
28626;BME280;18905;42.668;23.364;2023-03-21T03:48:42;94720.88;;;9.32;100.00
28626;BME280;18905;42.668;23.364;2023-03-21T03:51:19;94724.03;;;9.34;100.00
28626;BME280;18905;42.668;23.364;2023-03-21T03:53:59;94891.94;;;10.28;100.00
28626;BME280;18905;42.668;23.364;2023-03-21T03:56:26;94742.28;;;9.28;100.00
28626;BME280;18905;42.668;23.364;2023-03-21T03:58:53;94776.97;;;9.47;100.00
28626;BME280;18905;42.668;23.364;2023-03-21T04:01:18;94765.06;;;9.39;100.00
28626;BME280;18905;42.668;23.364;2023-03-21T04:03:46;94869.53;;;10.02;100.00
28626;BME280;18905;42.668;23.364;2023-03-21T04:06:14;94889.69;;;10.13;100.00
28626;BME280;18905;42.668;23.364;2023-03-21T04:08:39;94890.81;;;10.12;100.00
28626;BME280;18905;42.668;23.364;2023-03-21T04:11:05;94851.16;;;9.87;100.00
28626;BME280;18905;42.668;23.364;2023-03-21T04:13:32;94794.25;;;9.46;100.00
28626;BME280;18905;42.668;23.364;2023-03-21T04:15:57;94873.84;;;9.94;100.00
28626;BME280;18905;42.668;23.364;2023-03-21T04:18:24;94833.25;;;9.74;100.00
28626;BME280;18905;42.668;23.364;2023-03-21T04:20:49;94823.09;;;9.62;100.00
28626;BME280;18905;42.668;23.364;2023-03-21T04:23:16;94891.31;;;10.05;100.00
28626;BME280;18905;42.668;23.364;2023-03-21T04:25:44;94814.69;;;9.64;100.00
28626;BME280;18905;42.668;23.364;2023-03-21T04:28:10;94792.19;;;9.51;100.00
28626;BME280;18905;42.668;23.364;2023-03-21T04:30:36;94804.72;;;9.47;100.00
28626;BME280;18905;42.668;23.364;2023-03-21T04:33:01;94800.88;;;9.31;100.00
28626;BME280;18905;42.668;23.364;2023-03-21T04:35:27;94852.41;;;9.55;100.00
28626;BME280;18905;42.668;23.364;2023-03-21T04:37:53;94806.94;;;9.28;100.00
28626;BME280;18905;42.668;23.364;2023-03-21T04:40:20;94796.28;;;9.15;100.00
28626;BME280;18905;42.668;23.364;2023-03-21T04:42:46;94881.16;;;9.77;100.00
28626;BME280;18905;42.668;23.364;2023-03-21T04:45:13;94870.03;;;9.70;100.00
28626;BME280;18905;42.668;23.364;2023-03-21T04:47:39;94837.50;;;9.58;100.00
28626;BME280;18905;42.668;23.364;2023-03-21T04:50:06;94865.28;;;9.84;100.00
28626;BME280;18905;42.668;23.364;2023-03-21T04:52:31;94889.72;;;10.04;100.00
28626;BME280;18905;42.668;23.364;2023-03-21T04:54:57;94869.25;;;9.95;100.00
28626;BME280;18905;42.668;23.364;2023-03-21T04:57:22;94880.50;;;10.05;100.00
28626;BME280;18905;42.668;23.364;2023-03-21T04:59:48;94788.69;;;9.42;100.00
28626;BME280;18905;42.668;23.364;2023-03-21T05:02:13;94801.81;;;10.12;100.00
28626;BME280;18905;42.668;23.364;2023-03-21T05:04:39;94908.91;;;11.29;100.00
28626;BME280;18905;42.668;23.364;2023-03-21T05:07:06;94906.50;;;11.65;100.00
28626;BME280;18905;42.668;23.364;2023-03-21T05:09:31;94839.88;;;11.60;100.00
28626;BME280;18905;42.668;23.364;2023-03-21T05:11:57;94872.03;;;12.36;100.00
28626;BME280;18905;42.668;23.364;2023-03-21T05:14:24;94833.75;;;12.25;100.00
28626;BME280;18905;42.668;23.364;2023-03-21T05:16:52;94823.41;;;12.39;100.00
28626;BME280;18905;42.668;23.364;2023-03-21T05:19:27;94887.91;;;13.02;99.18
28626;BME280;18905;42.668;23.364;2023-03-21T05:22:03;94903.16;;;13.31;91.93
28626;BME280;18905;42.668;23.364;2023-03-21T05:24:31;94800.69;;;12.88;89.09
28626;BME280;18905;42.668;23.364;2023-03-21T05:26:57;94825.78;;;12.97;87.78
28626;BME280;18905;42.668;23.364;2023-03-21T05:29:28;94846.97;;;12.95;88.07
28626;BME280;18905;42.668;23.364;2023-03-21T05:31:57;94890.81;;;13.09;89.08
28626;BME280;18905;42.668;23.364;2023-03-21T05:34:23;94861.00;;;12.53;88.34
28626;BME280;18905;42.668;23.364;2023-03-21T05:36:49;94875.34;;;12.21;90.69
28626;BME280;18905;42.668;23.364;2023-03-21T05:39:14;94878.78;;;12.09;92.54
28626;BME280;18905;42.668;23.364;2023-03-21T05:41:39;94903.28;;;12.13;93.78
28626;BME280;18905;42.668;23.364;2023-03-21T05:44:05;94887.94;;;11.26;98.34
28626;BME280;18905;42.668;23.364;2023-03-21T05:46:30;94867.50;;;11.08;100.00
28626;BME280;18905;42.668;23.364;2023-03-21T05:48:56;94870.13;;;10.50;100.00
28626;BME280;18905;42.668;23.364;2023-03-21T05:51:21;94894.44;;;10.96;100.00
28626;BME280;18905;42.668;23.364;2023-03-21T05:53:47;94870.50;;;11.15;100.00
28626;BME280;18905;42.668;23.364;2023-03-21T05:56:12;94831.56;;;11.16;100.00
28626;BME280;18905;42.668;23.364;2023-03-21T05:58:38;94865.63;;;11.58;100.00
28626;BME280;18905;42.668;23.364;2023-03-21T06:01:04;94846.84;;;11.61;99.38
28626;BME280;18905;42.668;23.364;2023-03-21T06:03:30;94849.63;;;11.73;98.37
28626;BME280;18905;42.668;23.364;2023-03-21T06:05:55;94883.81;;;11.99;99.49
28626;BME280;18905;42.668;23.364;2023-03-21T06:08:21;94880.19;;;11.95;98.03
28626;BME280;18905;42.668;23.364;2023-03-21T06:10:46;94837.19;;;11.31;100.00
28626;BME280;18905;42.668;23.364;2023-03-21T06:13:12;94857.50;;;11.58;100.00
28626;BME280;18905;42.668;23.364;2023-03-21T06:15:37;94788.53;;;11.52;99.77
28626;BME280;18905;42.668;23.364;2023-03-21T06:18:03;94848.38;;;11.92;100.00
28626;BME280;18905;42.668;23.364;2023-03-21T06:20:28;94822.97;;;12.05;98.91
28626;BME280;18905;42.668;23.364;2023-03-21T06:22:54;94839.38;;;12.32;95.15
28626;BME280;18905;42.668;23.364;2023-03-21T06:25:19;94838.16;;;12.30;93.33
28626;BME280;18905;42.668;23.364;2023-03-21T06:27:46;94828.94;;;12.43;92.24
28626;BME280;18905;42.668;23.364;2023-03-21T06:30:11;94833.59;;;12.54;92.61
28626;BME280;18905;42.668;23.364;2023-03-21T06:32:37;94855.38;;;12.58;88.09
28626;BME280;18905;42.668;23.364;2023-03-21T06:35:03;94822.31;;;12.20;90.03
28626;BME280;18905;42.668;23.364;2023-03-21T06:37:28;94855.72;;;12.56;87.49
28626;BME280;18905;42.668;23.364;2023-03-21T06:39:54;94809.31;;;12.01;89.31
28626;BME280;18905;42.668;23.364;2023-03-21T06:42:19;94814.69;;;12.22;87.68
28626;BME280;18905;42.668;23.364;2023-03-21T06:44:45;94868.13;;;12.57;87.50
28626;BME280;18905;42.668;23.364;2023-03-21T06:47:10;94858.34;;;12.32;88.28
28626;BME280;18905;42.668;23.364;2023-03-21T06:49:36;94830.53;;;12.11;88.16
28626;BME280;18905;42.668;23.364;2023-03-21T06:52:01;94870.41;;;12.35;88.15
28626;BME280;18905;42.668;23.364;2023-03-21T06:54:27;94865.25;;;12.42;87.85
28626;BME280;18905;42.668;23.364;2023-03-21T06:56:52;94883.22;;;12.46;87.13
28626;BME280;18905;42.668;23.364;2023-03-21T06:59:19;94866.31;;;12.17;91.36
28626;BME280;18905;42.668;23.364;2023-03-21T07:01:45;94890.03;;;12.64;90.02
28626;BME280;18905;42.668;23.364;2023-03-21T07:04:11;94864.41;;;12.62;88.06
28626;BME280;18905;42.668;23.364;2023-03-21T07:06:36;94826.91;;;12.40;89.33
28626;BME280;18905;42.668;23.364;2023-03-21T07:09:03;94800.41;;;12.45;89.86
28626;BME280;18905;42.668;23.364;2023-03-21T07:11:30;94877.63;;;13.20;92.39
28626;BME280;18905;42.668;23.364;2023-03-21T07:13:56;94883.94;;;13.12;96.33
28626;BME280;18905;42.668;23.364;2023-03-21T07:16:22;94798.56;;;11.51;100.00
28626;BME280;18905;42.668;23.364;2023-03-21T07:18:49;94811.53;;;11.67;100.00
28626;BME280;18905;42.668;23.364;2023-03-21T07:21:14;94866.59;;;12.03;100.00
28626;BME280;18905;42.668;23.364;2023-03-21T07:23:40;94872.44;;;12.05;100.00
28626;BME280;18905;42.668;23.364;2023-03-21T07:26:05;94902.47;;;12.33;100.00
28626;BME280;18905;42.668;23.364;2023-03-21T07:28:31;94906.59;;;12.51;100.00
28626;BME280;18905;42.668;23.364;2023-03-21T07:31:00;94900.16;;;12.23;100.00
28626;BME280;18905;42.668;23.364;2023-03-21T07:33:27;94891.94;;;12.19;100.00
28626;BME280;18905;42.668;23.364;2023-03-21T07:35:53;94892.88;;;12.35;100.00
28626;BME280;18905;42.668;23.364;2023-03-21T07:38:19;94893.47;;;12.41;100.00
28626;BME280;18905;42.668;23.364;2023-03-21T07:40:46;94896.69;;;12.67;100.00
28626;BME280;18905;42.668;23.364;2023-03-21T07:43:12;94853.88;;;12.48;100.00
28626;BME280;18905;42.668;23.364;2023-03-21T07:45:38;94893.53;;;12.97;100.00
28626;BME280;18905;42.668;23.364;2023-03-21T07:48:04;94840.97;;;12.78;99.73
28626;BME280;18905;42.668;23.364;2023-03-21T07:50:29;94862.16;;;13.08;97.87
28626;BME280;18905;42.668;23.364;2023-03-21T07:52:55;94871.06;;;13.21;96.77
28626;BME280;18905;42.668;23.364;2023-03-21T07:55:20;94865.41;;;13.26;96.27
28626;BME280;18905;42.668;23.364;2023-03-21T07:57:48;94899.53;;;13.63;95.16
28626;BME280;18905;42.668;23.364;2023-03-21T08:00:16;94849.59;;;13.52;91.37
28626;BME280;18905;42.668;23.364;2023-03-21T08:02:51;94862.69;;;13.62;91.60
28626;BME280;18905;42.668;23.364;2023-03-21T08:05:32;94895.50;;;14.20;86.79
28626;BME280;18905;42.668;23.364;2023-03-21T08:07:58;94894.75;;;13.96;89.25
28626;BME280;18905;42.668;23.364;2023-03-21T08:10:24;94894.78;;;13.12;93.92
28626;BME280;18905;42.668;23.364;2023-03-21T08:12:50;94860.13;;;13.29;92.34
28626;BME280;18905;42.668;23.364;2023-03-21T08:15:15;94886.88;;;14.06;88.60
28626;BME280;18905;42.668;23.364;2023-03-21T08:17:41;94897.75;;;14.06;88.60
28626;BME280;18905;42.668;23.364;2023-03-21T08:20:11;94894.03;;;14.38;85.33
28626;BME280;18905;42.668;23.364;2023-03-21T08:22:37;94878.56;;;14.39;84.42
28626;BME280;18905;42.668;23.364;2023-03-21T08:25:05;94874.47;;;14.60;82.56
28626;BME280;18905;42.668;23.364;2023-03-21T08:27:32;94870.47;;;14.70;79.23
28626;BME280;18905;42.668;23.364;2023-03-21T08:29:59;94792.47;;;13.72;84.19
28626;BME280;18905;42.668;23.364;2023-03-21T08:32:25;94872.63;;;14.49;81.20
28626;BME280;18905;42.668;23.364;2023-03-21T08:34:58;94849.56;;;14.43;80.06
28626;BME280;18905;42.668;23.364;2023-03-21T08:37:24;94861.25;;;14.59;79.65
28626;BME280;18905;42.668;23.364;2023-03-21T08:39:49;94871.03;;;14.75;77.52
28626;BME280;18905;42.668;23.364;2023-03-21T08:42:15;94783.06;;;14.37;75.52
28626;BME280;18905;42.668;23.364;2023-03-21T08:44:41;94875.84;;;15.28;71.44
28626;BME280;18905;42.668;23.364;2023-03-21T08:47:06;94884.66;;;15.53;69.46
28626;BME280;18905;42.668;23.364;2023-03-21T08:49:34;94863.50;;;15.31;67.93
28626;BME280;18905;42.668;23.364;2023-03-21T08:51:59;94844.38;;;15.43;65.82
28626;BME280;18905;42.668;23.364;2023-03-21T08:54:25;94839.47;;;15.17;67.61
28626;BME280;18905;42.668;23.364;2023-03-21T08:56:50;94836.81;;;15.05;67.89
28626;BME280;18905;42.668;23.364;2023-03-21T08:59:16;94848.38;;;15.33;66.06
28626;BME280;18905;42.668;23.364;2023-03-21T09:01:41;94873.41;;;15.54;65.96
28626;BME280;18905;42.668;23.364;2023-03-21T09:04:07;94833.91;;;15.29;65.74
28626;BME280;18905;42.668;23.364;2023-03-21T09:06:36;94814.09;;;15.44;64.19
28626;BME280;18905;42.668;23.364;2023-03-21T09:09:02;94844.16;;;14.58;68.51
28626;BME280;18905;42.668;23.364;2023-03-21T09:11:30;94800.16;;;14.68;67.21
28626;BME280;18905;42.668;23.364;2023-03-21T09:13:55;94861.13;;;14.98;66.89
28626;BME280;18905;42.668;23.364;2023-03-21T09:16:20;94830.75;;;14.81;66.81
28626;BME280;18905;42.668;23.364;2023-03-21T09:18:46;94812.25;;;15.33;78.62
28626;BME280;18905;42.668;23.364;2023-03-21T09:21:14;94854.47;;;16.68;81.23
28626;BME280;18905;42.668;23.364;2023-03-21T09:23:41;94844.63;;;17.50;65.26
28626;BME280;18905;42.668;23.364;2023-03-21T09:26:07;94816.38;;;17.65;62.09
28626;BME280;18905;42.668;23.364;2023-03-21T09:28:34;94853.88;;;17.68;55.53
28626;BME280;18905;42.668;23.364;2023-03-21T09:31:02;94790.66;;;16.31;57.36
28626;BME280;18905;42.668;23.364;2023-03-21T09:33:28;94826.63;;;16.21;58.31
28626;BME280;18905;42.668;23.364;2023-03-21T09:35:54;94808.38;;;16.03;58.89
28626;BME280;18905;42.668;23.364;2023-03-21T09:38:20;94837.63;;;16.25;58.92
28626;BME280;18905;42.668;23.364;2023-03-21T09:43:44;94827.09;;;16.42;57.04
28626;BME280;18905;42.668;23.364;2023-03-21T09:46:44;94812.88;;;16.33;57.96
28626;BME280;18905;42.668;23.364;2023-03-21T09:49:26;94809.47;;;16.17;58.17
28626;BME280;18905;42.668;23.364;2023-03-21T09:51:57;94800.50;;;15.79;58.81
28626;BME280;18905;42.668;23.364;2023-03-21T09:54:28;94807.88;;;15.97;58.37
28626;BME280;18905;42.668;23.364;2023-03-21T09:57:01;94817.25;;;16.19;58.50
28626;BME280;18905;42.668;23.364;2023-03-21T09:59:34;94821.50;;;16.35;58.10
28626;BME280;18905;42.668;23.364;2023-03-21T10:02:53;94817.03;;;16.65;57.24
28626;BME280;18905;42.668;23.364;2023-03-21T10:05:25;94806.22;;;16.31;57.54
28626;BME280;18905;42.668;23.364;2023-03-21T10:07:58;94773.91;;;15.72;58.78
28626;BME280;18905;42.668;23.364;2023-03-21T10:10:34;94788.97;;;15.85;58.08
28626;BME280;18905;42.668;23.364;2023-03-21T10:13:05;94802.59;;;16.04;58.02
28626;BME280;18905;42.668;23.364;2023-03-21T10:15:35;94796.97;;;15.97;57.83
28626;BME280;18905;42.668;23.364;2023-03-21T10:18:04;94768.34;;;16.03;57.69
28626;BME280;18905;42.668;23.364;2023-03-21T10:20:35;94778.72;;;15.98;59.29
28626;BME280;18905;42.668;23.364;2023-03-21T10:23:04;94775.47;;;16.11;59.31
28626;BME280;18905;42.668;23.364;2023-03-21T10:25:40;94776.69;;;16.74;56.47
28626;BME280;18905;42.668;23.364;2023-03-21T10:28:08;94737.66;;;16.93;55.20
28626;BME280;18905;42.668;23.364;2023-03-21T10:30:43;94784.16;;;17.48;53.29
28626;BME280;18905;42.668;23.364;2023-03-21T10:33:14;94755.34;;;17.80;53.43
28626;BME280;18905;42.668;23.364;2023-03-21T10:35:44;94748.13;;;17.95;51.42
28626;BME280;18905;42.668;23.364;2023-03-21T10:38:22;94788.16;;;18.13;50.59
28626;BME280;18905;42.668;23.364;2023-03-21T10:40:49;94797.28;;;17.65;50.30
28626;BME280;18905;42.668;23.364;2023-03-21T10:43:41;94784.88;;;18.01;49.04
28626;BME280;18905;42.668;23.364;2023-03-21T10:46:18;94780.53;;;17.96;49.51
28626;BME280;18905;42.668;23.364;2023-03-21T10:48:52;94800.66;;;17.85;47.63
28626;BME280;18905;42.668;23.364;2023-03-21T10:51:21;94788.47;;;18.08;47.82
28626;BME280;18905;42.668;23.364;2023-03-21T10:53:54;94791.47;;;18.29;48.69
28626;BME280;18905;42.668;23.364;2023-03-21T10:56:25;94785.97;;;18.26;47.28
28626;BME280;18905;42.668;23.364;2023-03-21T10:58:53;94767.41;;;18.38;47.49
28626;BME280;18905;42.668;23.364;2023-03-21T11:01:34;94769.47;;;18.52;46.49
28626;BME280;18905;42.668;23.364;2023-03-21T11:04:07;94765.16;;;18.47;45.91
28626;BME280;18905;42.668;23.364;2023-03-21T11:06:37;94765.22;;;18.21;45.87
28626;BME280;18905;42.668;23.364;2023-03-21T11:09:12;94765.47;;;18.09;45.91
28626;BME280;18905;42.668;23.364;2023-03-21T11:12:01;94748.78;;;18.18;46.07
28626;BME280;18905;42.668;23.364;2023-03-21T11:14:32;94758.19;;;18.53;44.87
28626;BME280;18905;42.668;23.364;2023-03-21T11:17:00;94745.63;;;17.83;46.05
28626;BME280;18905;42.668;23.364;2023-03-21T11:19:31;94754.91;;;18.37;45.21
28626;BME280;18905;42.668;23.364;2023-03-21T11:21:58;94755.16;;;18.62;44.80
28626;BME280;18905;42.668;23.364;2023-03-21T11:24:29;94711.00;;;18.23;44.58
28626;BME280;18905;42.668;23.364;2023-03-21T11:26:55;94735.34;;;18.35;44.56
28626;BME280;18905;42.668;23.364;2023-03-21T11:29:25;94741.66;;;18.79;44.26
28626;BME280;18905;42.668;23.364;2023-03-21T11:31:51;94660.75;;;17.36;45.24
28626;BME280;18905;42.668;23.364;2023-03-21T11:34:26;94731.97;;;17.83;46.22
28626;BME280;18905;42.668;23.364;2023-03-21T11:36:58;94709.75;;;17.84;45.23
28626;BME280;18905;42.668;23.364;2023-03-21T11:39:32;94687.75;;;18.40;45.61
28626;BME280;18905;42.668;23.364;2023-03-21T11:41:58;94712.88;;;18.52;44.37
28626;BME280;18905;42.668;23.364;2023-03-21T11:44:41;94677.22;;;18.05;44.07
28626;BME280;18905;42.668;23.364;2023-03-21T11:47:09;94724.66;;;18.23;43.98
28626;BME280;18905;42.668;23.364;2023-03-21T11:49:35;94703.72;;;18.01;44.92
28626;BME280;18905;42.668;23.364;2023-03-21T12:02:49;94706.13;;;17.44;45.75
28626;BME280;18905;42.668;23.364;2023-03-21T12:05:28;94682.19;;;17.63;44.87
28626;BME280;18905;42.668;23.364;2023-03-21T12:08:22;94672.97;;;17.75;44.57
28626;BME280;18905;42.668;23.364;2023-03-21T12:11:00;94692.69;;;17.94;44.75
28626;BME280;18905;42.668;23.364;2023-03-21T12:16:20;94693.63;;;18.42;43.97
28626;BME280;18905;42.668;23.364;2023-03-21T12:24:54;94677.47;;;17.93;44.77
28626;BME280;18905;42.668;23.364;2023-03-21T12:30:47;94684.88;;;18.29;44.73
28626;BME280;18905;42.668;23.364;2023-03-21T12:44:12;94635.34;;;17.94;43.72
28626;BME280;18905;42.668;23.364;2023-03-21T12:49:15;94638.28;;;18.15;44.28
28626;BME280;18905;42.668;23.364;2023-03-21T12:51:46;94600.50;;;17.84;44.14
28626;BME280;18905;42.668;23.364;2023-03-21T12:54:53;94659.31;;;18.11;44.16
28626;BME280;18905;42.668;23.364;2023-03-21T12:57:45;94635.00;;;17.99;44.40
28626;BME280;18905;42.668;23.364;2023-03-21T13:05:32;94642.84;;;18.88;43.36
28626;BME280;18905;42.668;23.364;2023-03-21T13:10:23;94636.50;;;18.73;43.79
28626;BME280;18905;42.668;23.364;2023-03-21T13:21:13;94621.16;;;17.82;45.83
28626;BME280;18905;42.668;23.364;2023-03-21T13:23:54;94599.19;;;17.71;46.09
28626;BME280;18905;42.668;23.364;2023-03-21T13:26:31;94627.22;;;18.01;45.98
28626;BME280;18905;42.668;23.364;2023-03-21T13:28:57;94577.16;;;17.54;46.87
28626;BME280;18905;42.668;23.364;2023-03-21T13:31:26;94601.16;;;17.71;47.11
28626;BME280;18905;42.668;23.364;2023-03-21T13:33:54;94608.94;;;18.09;46.67
28626;BME280;18905;42.668;23.364;2023-03-21T13:36:29;94544.00;;;17.52;46.91
28626;BME280;18905;42.668;23.364;2023-03-21T13:39:00;94612.94;;;17.78;46.95
28626;BME280;18905;42.668;23.364;2023-03-21T13:41:35;94573.06;;;17.70;46.88
28626;BME280;18905;42.668;23.364;2023-03-21T13:49:01;94578.78;;;17.98;46.80
28626;BME280;18905;42.668;23.364;2023-03-21T13:51:53;94604.03;;;18.25;47.06
28626;BME280;18905;42.668;23.364;2023-03-21T13:57:03;94595.56;;;17.97;47.77
28626;BME280;18905;42.668;23.364;2023-03-21T13:59:39;94587.22;;;17.83;48.67
28626;BME280;18905;42.668;23.364;2023-03-21T14:02:28;94589.66;;;17.91;49.00
28626;BME280;18905;42.668;23.364;2023-03-21T14:04:58;94560.41;;;17.55;49.57
28626;BME280;18905;42.668;23.364;2023-03-21T14:07:30;94556.44;;;17.49;49.74
28626;BME280;18905;42.668;23.364;2023-03-21T14:10:07;94596.31;;;17.57;50.77
28626;BME280;18905;42.668;23.364;2023-03-21T14:12:38;94586.38;;;17.42;51.08
28626;BME280;18905;42.668;23.364;2023-03-21T14:17:32;94585.06;;;17.33;52.51
28626;BME280;18905;42.668;23.364;2023-03-21T14:20:07;94588.75;;;17.44;52.61
28626;BME280;18905;42.668;23.364;2023-03-21T14:22:40;94585.47;;;17.31;52.46
28626;BME280;18905;42.668;23.364;2023-03-21T14:25:13;94562.06;;;17.01;53.53